createdAt,value
2019-05-25T00:00:30.789Z,100378.87
2019-05-25T00:01:36.315Z,100375.87
2019-05-25T00:02:41.463Z,100378.63
2019-05-25T00:03:45.869Z,100372.08
2019-05-25T00:04:50.961Z,100377.83
2019-05-25T00:05:55.380Z,100378.08
2019-05-25T00:07:03.320Z,100373.89
2019-05-25T00:08:07.811Z,100374.10
2019-05-25T00:09:12.808Z,100382.56
2019-05-25T00:10:19.004Z,100372.50
2019-05-25T00:11:24.080Z,100382.35
2019-05-25T00:12:28.574Z,100377.97
2019-05-25T00:13:33.573Z,100380.23
2019-05-25T00:14:38.014Z,100383.88
2019-05-25T00:15:43.165Z,100381.47
2019-05-25T00:16:47.566Z,100384.64
2019-05-25T00:17:52.633Z,100387.42
2019-05-25T00:18:57.048Z,100384.42
2019-05-25T00:20:02.093Z,100376.23
2019-05-25T00:21:06.566Z,100384.30
2019-05-25T00:22:11.572Z,100385.20
2019-05-25T00:23:16.055Z,100383.08
2019-05-25T00:24:21.127Z,100383.73
2019-05-25T00:25:25.628Z,100379.50
2019-05-25T00:26:30.941Z,100383.47
2019-05-25T00:27:35.423Z,100382.28
2019-05-25T00:28:40.492Z,100384.99
2019-05-25T00:29:45.419Z,100379.70
2019-05-25T00:30:50.484Z,100381.99
2019-05-25T00:31:55.049Z,100386.99
2019-05-25T00:33:00.389Z,100386.99
2019-05-25T00:34:05.172Z,100384.95
2019-05-25T00:35:10.398Z,100387.31
2019-05-25T00:36:14.868Z,100385.22
2019-05-25T00:37:20.012Z,100384.83
2019-05-25T00:38:24.507Z,100386.59
2019-05-25T00:39:29.577Z,100388.44
2019-05-25T00:40:34.087Z,100389.46
2019-05-25T00:41:39.083Z,100390.49
2019-05-25T00:42:43.866Z,100388.33
2019-05-25T00:43:48.876Z,100394.45
2019-05-25T00:44:53.316Z,100393.16
2019-05-25T00:45:58.409Z,100392.27
2019-05-25T00:47:02.889Z,100400.64
2019-05-25T00:48:08.174Z,100395.12
2019-05-25T00:49:12.595Z,100397.77
2019-05-25T00:50:17.751Z,100404.76
2019-05-25T00:51:22.164Z,100400.95
2019-05-25T00:52:27.165Z,100400.72
2019-05-25T00:53:31.588Z,100408.22
2019-05-25T00:54:36.583Z,100404.53
2019-05-25T00:55:41.016Z,100411.14
2019-05-25T00:56:46.016Z,100407.77
2019-05-25T00:57:50.434Z,100407.65
2019-05-25T00:58:55.499Z,100410.50
2019-05-25T00:59:59.930Z,100406.54
2019-05-25T01:01:05.283Z,100411.23
2019-05-25T01:02:09.718Z,100410.20
2019-05-25T01:03:15.037Z,100411.16
2019-05-25T01:04:19.519Z,100408.97
2019-05-25T01:05:24.980Z,100413.66
2019-05-25T01:06:29.559Z,100413.56
2019-05-25T01:07:34.554Z,100412.91
2019-05-25T01:08:38.989Z,100417.07
2019-05-25T01:09:44.092Z,100423.91
2019-05-25T01:10:48.803Z,100421.86
2019-05-25T01:11:53.800Z,100421.09
2019-05-25T01:12:58.221Z,100423.13
2019-05-25T01:14:03.289Z,100427.03
2019-05-25T01:15:08.457Z,100424.75
2019-05-25T01:16:13.467Z,100426.61
2019-05-25T01:17:18.204Z,100430.88
2019-05-25T01:18:23.344Z,100434.14
2019-05-25T01:19:27.759Z,100425.09
2019-05-25T01:20:32.928Z,100426.41
2019-05-25T01:21:37.722Z,100429.05
2019-05-25T01:22:42.726Z,100422.09
2019-05-25T01:23:47.144Z,100422.58
2019-05-25T01:24:52.156Z,100423.14
2019-05-25T01:25:56.593Z,100422.27
2019-05-25T01:27:01.994Z,100419.55
2019-05-25T01:28:06.492Z,100419.27
2019-05-25T01:29:11.525Z,100416.18
2019-05-25T01:30:16.484Z,100421.23
2019-05-25T01:31:21.711Z,100427.52
2019-05-25T01:32:26.129Z,100416.56
2019-05-25T01:33:31.240Z,100422.38
2019-05-25T01:34:35.637Z,100426.83
2019-05-25T01:35:40.973Z,100425.57
2019-05-25T01:36:45.384Z,100425.70
2019-05-25T01:37:50.502Z,100425.25
2019-05-25T01:38:56.059Z,100420.56
2019-05-25T01:40:01.076Z,100427.23
2019-05-25T01:41:05.731Z,100424.27
2019-05-25T01:42:10.808Z,100426.59
2019-05-25T01:43:15.376Z,100429.23
2019-05-25T01:44:20.652Z,100432.38
2019-05-25T01:45:25.189Z,100432.19
2019-05-25T01:46:30.283Z,100433.26
2019-05-25T01:47:34.768Z,100435.69
2019-05-25T01:48:39.770Z,100437.08
2019-05-25T01:49:44.185Z,100433.20
2019-05-25T01:50:49.560Z,100439.09
2019-05-25T01:51:53.980Z,100429.17
2019-05-25T01:52:58.991Z,100439.22
2019-05-25T01:54:03.483Z,100437.19
2019-05-25T01:55:08.625Z,100438.82
2019-05-25T01:56:13.461Z,100432.23
2019-05-25T01:57:18.477Z,100445.65
2019-05-25T01:58:23.196Z,100443.68
2019-05-25T01:59:28.266Z,100438.85
2019-05-25T02:00:32.758Z,100438.59
2019-05-25T02:01:37.856Z,100437.75
2019-05-25T02:02:42.355Z,100430.73
2019-05-25T02:03:47.450Z,100441.61
2019-05-25T02:04:51.949Z,100437.00
2019-05-25T02:05:56.972Z,100435.83
2019-05-25T02:07:01.393Z,100440.22
2019-05-25T02:08:06.538Z,100439.14
2019-05-25T02:09:11.101Z,100440.19
2019-05-25T02:10:16.450Z,100440.69
2019-05-25T02:11:20.930Z,100446.02
2019-05-25T02:12:25.899Z,100440.41
2019-05-25T02:13:30.318Z,100437.35
2019-05-25T02:14:35.387Z,100443.95
2019-05-25T02:15:39.872Z,100440.48
2019-05-25T02:16:44.901Z,100445.36
2019-05-25T02:17:49.325Z,100439.78
2019-05-25T02:18:54.401Z,100441.14
2019-05-25T02:19:58.824Z,100441.30
2019-05-25T02:21:03.893Z,100439.16
2019-05-25T02:22:08.403Z,100444.93
2019-05-25T02:23:13.401Z,100445.42
2019-05-25T02:24:17.836Z,100451.61
2019-05-25T02:25:22.977Z,100448.54
2019-05-25T02:26:27.421Z,100453.41
2019-05-25T02:27:32.454Z,100449.52
2019-05-25T02:28:36.876Z,100452.64
2019-05-25T02:29:41.886Z,100452.70
2019-05-25T02:30:47.591Z,100449.39
2019-05-25T02:31:53.790Z,100448.03
2019-05-25T02:32:58.393Z,100454.61
2019-05-25T02:34:03.440Z,100452.02
2019-05-25T02:35:08.205Z,100454.72
2019-05-25T02:36:13.219Z,100448.62
2019-05-25T02:37:17.650Z,100451.25
2019-05-25T02:38:22.555Z,100454.81
2019-05-25T02:39:26.994Z,100453.02
2019-05-25T02:40:32.074Z,100457.83
2019-05-25T02:41:36.845Z,100460.80
2019-05-25T02:42:41.884Z,100461.19
2019-05-25T02:43:46.337Z,100460.75
2019-05-25T02:44:51.343Z,100460.36
2019-05-25T02:45:55.834Z,100456.41
2019-05-25T02:47:01.220Z,100461.17
2019-05-25T02:48:05.714Z,100459.43
2019-05-25T02:49:10.714Z,100456.80
2019-05-25T02:50:15.473Z,100457.72
2019-05-25T02:51:20.833Z,100455.19
2019-05-25T02:52:25.272Z,100454.31
2019-05-25T02:53:30.272Z,100458.17
2019-05-25T02:54:34.910Z,100454.72
2019-05-25T02:55:40.312Z,100460.41
2019-05-25T02:56:44.749Z,100463.04
2019-05-25T02:57:49.754Z,100457.83
2019-05-25T02:58:54.547Z,100456.56
2019-05-25T02:59:59.542Z,100460.55
2019-05-25T03:01:04.409Z,100458.31
2019-05-25T03:02:09.503Z,100467.97
2019-05-25T03:03:14.174Z,100460.06
2019-05-25T03:04:19.326Z,100465.81
2019-05-25T03:05:23.961Z,100465.88
2019-05-25T03:06:29.806Z,100467.62
2019-05-25T03:07:35.500Z,100472.45
2019-05-25T03:08:42.018Z,100464.55
2019-05-25T03:09:47.998Z,100470.79
2019-05-25T03:10:53.800Z,100475.56
2019-05-25T03:11:59.977Z,100474.30
2019-05-25T03:13:05.615Z,100478.25
2019-05-25T03:14:10.177Z,100475.14
2019-05-25T03:15:15.895Z,100478.64
2019-05-25T03:16:20.413Z,100479.08
2019-05-25T03:17:25.435Z,100481.77
2019-05-25T03:18:29.850Z,100474.80
2019-05-25T03:19:35.006Z,100480.89
2019-05-25T03:20:39.483Z,100473.87
2019-05-25T03:21:44.523Z,100470.50
2019-05-25T03:22:48.960Z,100477.03
2019-05-25T03:23:53.979Z,100483.12
2019-05-25T03:24:58.398Z,100476.54
2019-05-25T03:26:03.396Z,100476.45
2019-05-25T03:27:07.825Z,100478.16
2019-05-25T03:28:12.896Z,100482.55
2019-05-25T03:29:17.312Z,100480.89
2019-05-25T03:30:31.313Z,100480.50
2019-05-25T03:31:35.735Z,100483.99
2019-05-25T03:32:40.770Z,100482.69
2019-05-25T03:33:45.174Z,100484.00
2019-05-25T03:34:50.183Z,100485.89
2019-05-25T03:35:54.998Z,100484.63
2019-05-25T03:37:00.072Z,100482.77
2019-05-25T03:38:04.670Z,100485.36
2019-05-25T03:39:09.789Z,100479.18
2019-05-25T03:40:14.492Z,100489.21
2019-05-25T03:41:19.560Z,100484.82
2019-05-25T03:42:24.455Z,100485.70
2019-05-25T03:43:29.595Z,100482.63
2019-05-25T03:44:34.012Z,100487.90
2019-05-25T03:45:39.021Z,100485.66
2019-05-25T03:46:43.525Z,100485.55
2019-05-25T03:47:48.679Z,100484.34
2019-05-25T03:48:53.098Z,100486.92
2019-05-25T03:49:58.378Z,100480.78
2019-05-25T03:51:02.793Z,100484.23
2019-05-25T03:52:08.121Z,100483.17
2019-05-25T03:53:12.638Z,100490.05
2019-05-25T03:54:17.633Z,100487.02
2019-05-25T03:55:22.121Z,100485.81
2019-05-25T03:56:27.496Z,100489.25
2019-05-25T03:57:31.927Z,100486.67
2019-05-25T03:58:36.931Z,100489.16
2019-05-25T03:59:41.819Z,100492.28
2019-05-25T04:00:48.217Z,100486.62
2019-05-25T04:01:52.635Z,100495.25
2019-05-25T04:02:57.704Z,100501.44
2019-05-25T04:04:02.116Z,100496.95
2019-05-25T04:05:07.873Z,100490.75
2019-05-25T04:06:12.284Z,100495.14
2019-05-25T04:07:17.285Z,100495.16
2019-05-25T04:08:22.153Z,100495.98
2019-05-25T04:09:27.157Z,100494.95
2019-05-25T04:10:31.642Z,100494.89
2019-05-25T04:11:36.916Z,100493.78
2019-05-25T04:12:41.423Z,100490.27
2019-05-25T04:13:47.388Z,100495.66
2019-05-25T04:14:51.801Z,100490.16
2019-05-25T04:15:57.116Z,100499.72
2019-05-25T04:17:02.019Z,100499.56
2019-05-25T04:18:07.116Z,100499.73
2019-05-25T04:19:11.530Z,100498.91
2019-05-25T04:20:16.963Z,100503.62
2019-05-25T04:21:21.386Z,100504.89
2019-05-25T04:22:26.389Z,100503.64
2019-05-25T04:23:30.862Z,100502.98
2019-05-25T04:24:35.833Z,100498.54
2019-05-25T04:25:40.244Z,100500.94
2019-05-25T04:26:45.243Z,100504.58
2019-05-25T04:27:50.032Z,100506.77
2019-05-25T04:28:55.243Z,100505.11
2019-05-25T04:29:59.661Z,100511.20
2019-05-25T04:31:04.655Z,100510.59
2019-05-25T04:32:09.116Z,100510.11
2019-05-25T04:33:14.183Z,100515.27
2019-05-25T04:34:18.609Z,100514.98
2019-05-25T04:35:23.628Z,100520.27
2019-05-25T04:36:28.185Z,100521.08
2019-05-25T04:37:33.256Z,100523.51
2019-05-25T04:38:37.720Z,100517.63
2019-05-25T04:39:42.762Z,100527.80
2019-05-25T04:40:47.186Z,100523.98
2019-05-25T04:41:52.173Z,100519.88
2019-05-25T04:42:56.610Z,100524.23
2019-05-25T04:44:01.656Z,100522.47
2019-05-25T04:45:07.561Z,100524.69
2019-05-25T04:46:12.564Z,100524.13
2019-05-25T04:47:26.609Z,100526.50
2019-05-25T04:48:23.740Z,100520.80
2019-05-25T04:49:28.155Z,100520.62
2019-05-25T04:50:33.612Z,100518.61
2019-05-25T04:51:38.039Z,100517.03
2019-05-25T04:52:43.160Z,100521.88
2019-05-25T04:53:47.591Z,100524.39
2019-05-25T04:54:52.651Z,100517.55
2019-05-25T04:55:57.342Z,100521.49
2019-05-25T04:57:02.493Z,100524.20
2019-05-25T04:58:07.033Z,100524.80
2019-05-25T04:59:12.370Z,100515.86
2019-05-25T05:00:16.920Z,100521.19
2019-05-25T05:01:22.726Z,100521.19
2019-05-25T05:02:27.205Z,100528.48
2019-05-25T05:03:32.223Z,100522.56
2019-05-25T05:04:36.634Z,100524.58
2019-05-25T05:05:41.998Z,100524.31
2019-05-25T05:06:46.459Z,100529.49
2019-05-25T05:07:51.495Z,100528.55
2019-05-25T05:08:56.065Z,100529.18
2019-05-25T05:10:03.007Z,100530.62
2019-05-25T05:11:07.323Z,100529.59
2019-05-25T05:12:12.324Z,100529.92
2019-05-25T05:13:16.736Z,100530.73
2019-05-25T05:14:21.757Z,100530.05
2019-05-25T05:15:26.238Z,100533.69
2019-05-25T05:16:31.236Z,100533.08
2019-05-25T05:17:35.661Z,100533.38
2019-05-25T05:18:40.673Z,100538.50
2019-05-25T05:19:45.078Z,100542.66
2019-05-25T05:20:50.080Z,100540.72
2019-05-25T05:21:54.492Z,100545.38
2019-05-25T05:22:59.495Z,100535.01
2019-05-25T05:24:03.997Z,100537.83
2019-05-25T05:25:10.104Z,100540.05
2019-05-25T05:26:15.076Z,100539.41
2019-05-25T05:27:20.482Z,100539.72
2019-05-25T05:28:25.264Z,100538.93
2019-05-25T05:29:30.289Z,100538.73
2019-05-25T05:30:35.337Z,100544.02
2019-05-25T05:31:40.881Z,100540.62
2019-05-25T05:32:45.293Z,100554.20
2019-05-25T05:33:50.455Z,100547.73
2019-05-25T05:34:55.008Z,100548.30
2019-05-25T05:36:01.053Z,100542.36
2019-05-25T05:37:05.709Z,100550.68
2019-05-25T05:38:11.064Z,100550.38
2019-05-25T05:39:15.556Z,100550.53
2019-05-25T05:40:20.689Z,100543.56
2019-05-25T05:41:27.117Z,100539.56
2019-05-25T05:42:33.527Z,100546.17
2019-05-25T05:43:39.679Z,100546.23
2019-05-25T05:44:46.297Z,100545.27
2019-05-25T05:45:53.354Z,100547.48
2019-05-25T05:47:00.417Z,100540.58
2019-05-25T05:48:04.935Z,100543.58
2019-05-25T05:49:11.570Z,100540.66
2019-05-25T05:50:16.509Z,100544.31
2019-05-25T05:51:21.724Z,100541.16
2019-05-25T05:52:29.228Z,100544.69
2019-05-25T05:53:36.950Z,100543.90
2019-05-25T05:54:44.426Z,100545.95
2019-05-25T05:55:49.440Z,100551.45
2019-05-25T05:56:54.136Z,100544.48
2019-05-25T05:57:59.139Z,100552.70
2019-05-25T05:59:03.649Z,100547.94
2019-05-25T06:00:10.286Z,100548.53
2019-05-25T06:01:14.695Z,100549.92
2019-05-25T06:02:19.696Z,100546.31
2019-05-25T06:03:24.111Z,100547.51
2019-05-25T06:04:30.535Z,100550.40
2019-05-25T06:05:35.089Z,100542.94
2019-05-25T06:06:40.129Z,100543.00
2019-05-25T06:07:44.859Z,100548.95
2019-05-25T06:08:49.862Z,100541.16
2019-05-25T06:09:54.292Z,100544.04
2019-05-25T06:10:59.290Z,100546.91
2019-05-25T06:12:04.004Z,100550.62
2019-05-25T06:13:09.405Z,100543.71
2019-05-25T06:14:13.845Z,100550.62
2019-05-25T06:15:19.185Z,100554.39
2019-05-25T06:16:23.601Z,100548.49
2019-05-25T06:17:28.666Z,100558.05
2019-05-25T06:18:33.098Z,100553.92
2019-05-25T06:19:38.206Z,100556.27
2019-05-25T06:20:42.626Z,100569.23
2019-05-25T06:21:47.698Z,100562.12
2019-05-25T06:22:52.248Z,100559.47
2019-05-25T06:23:57.296Z,100566.01
2019-05-25T06:25:02.014Z,100567.56
2019-05-25T06:26:07.142Z,100560.15
2019-05-25T06:27:26.326Z,100562.59
2019-05-25T06:28:22.424Z,100569.11
2019-05-25T06:29:25.924Z,100573.00
2019-05-25T06:30:31.060Z,100569.81
2019-05-25T06:31:35.483Z,100565.55
2019-05-25T06:32:40.478Z,100576.97
2019-05-25T06:33:45.967Z,100576.70
2019-05-25T06:34:50.997Z,100573.41
2019-05-25T06:35:55.562Z,100575.15
2019-05-25T06:37:00.569Z,100571.38
2019-05-25T06:38:05.089Z,100579.58
2019-05-25T06:39:10.050Z,100575.73
2019-05-25T06:40:15.921Z,100582.34
2019-05-25T06:41:20.998Z,100581.52
2019-05-25T06:42:25.502Z,100585.77
2019-05-25T06:43:30.838Z,100586.13
2019-05-25T06:44:35.355Z,100589.32
2019-05-25T06:45:40.765Z,100593.58
2019-05-25T06:46:45.185Z,100593.83
2019-05-25T06:47:50.239Z,100590.78
2019-05-25T06:48:54.827Z,100592.75
2019-05-25T06:49:59.840Z,100592.77
2019-05-25T06:51:04.519Z,100600.70
2019-05-25T06:52:09.599Z,100599.41
2019-05-25T06:53:14.087Z,100603.05
2019-05-25T06:54:19.230Z,100609.02
2019-05-25T06:55:23.741Z,100597.89
2019-05-25T06:56:28.738Z,100602.77
2019-05-25T06:57:42.483Z,100610.16
2019-05-25T06:58:40.353Z,100599.84
2019-05-25T06:59:45.094Z,100608.20
2019-05-25T07:00:50.168Z,100609.50
2019-05-25T07:01:54.592Z,100607.66
2019-05-25T07:02:59.598Z,100607.16
2019-05-25T07:04:04.353Z,100607.34
2019-05-25T07:05:10.811Z,100602.31
2019-05-25T07:06:15.295Z,100604.76
2019-05-25T07:07:20.309Z,100608.16
2019-05-25T07:08:24.725Z,100618.91
2019-05-25T07:09:29.788Z,100616.69
2019-05-25T07:10:34.219Z,100619.95
2019-05-25T07:11:39.245Z,100623.08
2019-05-25T07:12:43.652Z,100620.03
2019-05-25T07:13:48.737Z,100619.58
2019-05-25T07:14:53.273Z,100630.17
2019-05-25T07:15:58.291Z,100627.73
2019-05-25T07:17:02.985Z,100626.03
2019-05-25T07:18:08.061Z,100623.89
2019-05-25T07:19:12.624Z,100632.17
2019-05-25T07:20:17.982Z,100631.89
2019-05-25T07:21:22.463Z,100625.87
2019-05-25T07:22:27.484Z,100624.70
2019-05-25T07:23:31.880Z,100630.33
2019-05-25T07:24:36.944Z,100620.98
2019-05-25T07:25:41.444Z,100622.66
2019-05-25T07:26:46.508Z,100623.12
2019-05-25T07:27:59.894Z,100623.34
2019-05-25T07:28:57.621Z,100623.11
2019-05-25T07:30:02.038Z,100621.16
2019-05-25T07:31:07.193Z,100623.52
2019-05-25T07:32:11.604Z,100620.54
2019-05-25T07:33:16.746Z,100624.31
2019-05-25T07:34:21.558Z,100623.08
2019-05-25T07:35:26.745Z,100628.11
2019-05-25T07:36:31.162Z,100627.25
2019-05-25T07:37:36.241Z,100623.91
2019-05-25T07:38:40.653Z,100618.00
2019-05-25T07:39:45.725Z,100622.80
2019-05-25T07:40:50.155Z,100623.42
2019-05-25T07:41:55.241Z,100625.30
2019-05-25T07:42:59.662Z,100623.03
2019-05-25T07:44:04.737Z,100627.73
2019-05-25T07:45:09.961Z,100630.26
2019-05-25T07:46:17.246Z,100629.31
2019-05-25T07:47:21.360Z,100631.48
2019-05-25T07:48:26.777Z,100638.14
2019-05-25T07:49:31.531Z,100631.42
2019-05-25T07:50:36.572Z,100634.92
2019-05-25T07:51:40.990Z,100634.22
2019-05-25T07:52:46.071Z,100633.44
2019-05-25T07:53:50.470Z,100634.16
2019-05-25T07:54:55.803Z,100639.52
2019-05-25T07:56:00.549Z,100640.77
2019-05-25T07:57:05.807Z,100641.48
2019-05-25T07:58:17.590Z,100645.50
2019-05-25T07:59:17.348Z,100645.22
2019-05-25T08:00:22.301Z,100646.07
2019-05-25T08:01:27.614Z,100654.41
2019-05-25T08:02:32.308Z,100651.14
2019-05-25T08:03:39.727Z,100654.89
2019-05-25T08:04:43.491Z,100647.80
2019-05-25T08:05:48.584Z,100648.42
2019-05-25T08:06:52.990Z,100652.53
2019-05-25T08:07:58.300Z,100660.31
2019-05-25T08:09:03.094Z,100648.84
2019-05-25T08:10:08.599Z,100656.14
2019-05-25T08:11:13.033Z,100658.16
2019-05-25T08:12:18.105Z,100659.66
2019-05-25T08:13:22.616Z,100658.16
2019-05-25T08:14:27.615Z,100654.42
2019-05-25T08:15:32.296Z,100661.45
2019-05-25T08:16:37.318Z,100664.73
2019-05-25T08:17:41.877Z,100657.31
2019-05-25T08:18:47.144Z,100657.02
2019-05-25T08:19:51.556Z,100655.05
2019-05-25T08:20:56.986Z,100664.20
2019-05-25T08:22:02.045Z,100661.91
2019-05-25T08:23:07.518Z,100656.19
2019-05-25T08:24:12.492Z,100665.90
2019-05-25T08:25:18.564Z,100662.67
2019-05-25T08:26:23.495Z,100663.48
2019-05-25T08:27:29.954Z,100669.98
2019-05-25T08:28:35.210Z,100663.88
2019-05-25T08:29:40.669Z,100664.63
2019-05-25T08:30:45.593Z,100667.66
2019-05-25T08:31:51.147Z,100668.19
2019-05-25T08:32:56.277Z,100662.77
2019-05-25T08:34:01.743Z,100669.41
2019-05-25T08:35:08.232Z,100671.80
2019-05-25T08:36:13.749Z,100668.53
2019-05-25T08:37:18.636Z,100663.16
2019-05-25T08:38:24.105Z,100668.13
2019-05-25T08:39:28.982Z,100666.61
2019-05-25T08:40:34.448Z,100663.50
2019-05-25T08:41:39.470Z,100666.54
2019-05-25T08:42:45.306Z,100661.55
2019-05-25T08:43:50.165Z,100660.05
2019-05-25T08:44:55.978Z,100661.52
2019-05-25T08:46:00.848Z,100664.66
2019-05-25T08:47:06.356Z,100663.47
2019-05-25T08:48:11.233Z,100664.03
2019-05-25T08:49:17.049Z,100662.77
2019-05-25T08:51:31.525Z,100659.62
2019-05-25T08:52:36.992Z,100661.16
2019-05-25T08:53:42.433Z,100664.71
2019-05-25T08:54:48.914Z,100664.25
2019-05-25T08:55:53.780Z,100664.58
2019-05-25T08:56:59.289Z,100667.16
2019-05-25T08:58:04.156Z,100673.95
2019-05-25T08:59:09.624Z,100677.28
2019-05-25T09:00:15.211Z,100669.16
2019-05-25T09:01:20.723Z,100674.63
2019-05-25T09:02:25.590Z,100676.37
2019-05-25T09:03:31.049Z,100672.88
2019-05-25T09:04:36.285Z,100670.27
2019-05-25T09:05:42.846Z,100675.20
2019-05-25T09:06:47.755Z,100676.66
2019-05-25T09:07:53.201Z,100673.28
2019-05-25T09:08:58.430Z,100674.20
2019-05-25T09:10:04.682Z,100676.73
2019-05-25T09:11:10.098Z,100666.34
2019-05-25T09:12:15.610Z,100671.31
2019-05-25T09:13:20.865Z,100672.92
2019-05-25T09:14:26.326Z,100677.59
2019-05-25T09:15:31.665Z,100674.14
2019-05-25T09:16:37.517Z,100675.50
2019-05-25T09:17:42.405Z,100672.81
2019-05-25T09:18:47.876Z,100673.77
2019-05-25T09:19:53.158Z,100675.44
2019-05-25T09:20:58.617Z,100680.13
2019-05-25T09:22:04.073Z,100679.11
2019-05-25T09:23:10.024Z,100683.42
2019-05-25T09:24:14.942Z,100680.42
2019-05-25T09:25:20.393Z,100677.92
2019-05-25T09:26:25.256Z,100682.07
2019-05-25T09:27:30.753Z,100681.11
2019-05-25T09:28:35.972Z,100677.73
2019-05-25T09:29:41.773Z,100681.80
2019-05-25T09:30:46.653Z,100679.87
2019-05-25T09:31:52.157Z,100678.42
2019-05-25T09:32:57.384Z,100678.38
2019-05-25T09:34:03.169Z,100674.71
2019-05-25T09:35:08.736Z,100683.88
2019-05-25T09:36:14.174Z,100683.73
2019-05-25T09:37:19.211Z,100683.20
2019-05-25T09:38:24.892Z,100679.16
2019-05-25T09:39:29.755Z,100672.41
2019-05-25T09:40:35.212Z,100670.80
2019-05-25T09:41:40.052Z,100675.32
2019-05-25T09:42:46.574Z,100678.78
2019-05-25T09:43:51.492Z,100675.45
2019-05-25T09:44:57.286Z,100685.31
2019-05-25T09:46:03.337Z,100674.68
2019-05-25T09:47:09.904Z,100669.58
2019-05-25T09:48:14.758Z,100677.87
2019-05-25T09:49:20.207Z,100672.47
2019-05-25T09:50:25.160Z,100672.23
2019-05-25T09:51:30.628Z,100675.05
2019-05-25T09:52:35.631Z,100674.37
2019-05-25T09:53:41.052Z,100675.21
2019-05-25T09:54:45.929Z,100671.52
2019-05-25T09:55:51.712Z,100669.03
2019-05-25T09:56:56.610Z,100660.39
2019-05-25T09:58:02.105Z,100665.66
2019-05-25T09:59:19.322Z,100670.41
2019-05-25T10:00:16.217Z,100676.36
2019-05-25T10:01:21.274Z,100675.32
2019-05-25T10:02:27.111Z,100673.20
2019-05-25T10:03:31.970Z,100666.66
2019-05-25T10:04:37.755Z,100662.59
2019-05-25T10:05:42.941Z,100669.47
2019-05-25T10:06:48.376Z,100679.70
2019-05-25T10:07:53.603Z,100679.02
2019-05-25T10:08:59.043Z,100684.03
2019-05-25T10:10:05.104Z,100686.16
2019-05-25T10:11:10.919Z,100686.70
2019-05-25T10:12:16.459Z,100687.27
2019-05-25T10:13:22.333Z,100683.63
2019-05-25T10:14:27.190Z,100679.02
2019-05-25T10:15:33.025Z,100672.92
2019-05-25T10:16:38.245Z,100679.69
2019-05-25T10:17:43.755Z,100681.42
2019-05-25T10:18:49.027Z,100683.15
2019-05-25T10:19:54.894Z,100677.66
2019-05-25T10:20:59.815Z,100686.31
2019-05-25T10:22:06.632Z,100677.55
2019-05-25T10:23:11.514Z,100679.84
2019-05-25T10:24:16.948Z,100685.55
2019-05-25T10:25:21.803Z,100679.33
2019-05-25T10:26:28.883Z,100673.52
2019-05-25T10:27:34.415Z,100677.87
2019-05-25T10:28:39.945Z,100678.48
2019-05-25T10:29:44.797Z,100679.69
2019-05-25T10:30:50.250Z,100674.52
2019-05-25T10:31:56.174Z,100676.30
2019-05-25T10:33:10.347Z,100671.44
2019-05-25T10:34:15.618Z,100666.78
2019-05-25T10:35:21.837Z,100671.52
2019-05-25T10:36:26.971Z,100671.44
2019-05-25T10:37:33.031Z,100670.02
2019-05-25T10:38:38.792Z,100671.72
2019-05-25T10:39:44.983Z,100674.97
2019-05-25T10:40:49.883Z,100672.27
2019-05-25T10:41:55.818Z,100676.63
2019-05-25T10:43:01.402Z,100667.94
2019-05-25T10:44:07.137Z,100675.17
2019-05-25T10:45:14.671Z,100671.19
2019-05-25T10:46:21.228Z,100672.39
2019-05-25T10:47:26.581Z,100682.99
2019-05-25T10:48:32.218Z,100677.55
2019-05-25T10:49:37.212Z,100677.83
2019-05-25T10:50:44.431Z,100670.64
2019-05-25T10:51:49.489Z,100675.47
2019-05-25T10:52:55.707Z,100675.96
2019-05-25T10:54:01.345Z,100667.66
2019-05-25T10:55:11.733Z,100672.94
2019-05-25T10:56:17.013Z,100675.00
2019-05-25T10:57:23.039Z,100673.09
2019-05-25T10:58:28.203Z,100676.00
2019-05-25T10:59:34.506Z,100677.39
2019-05-25T11:00:39.853Z,100676.17
2019-05-25T11:01:45.457Z,100677.69
2019-05-25T11:02:50.554Z,100674.72
2019-05-25T11:03:56.285Z,100678.56
2019-05-25T11:05:01.912Z,100674.47
2019-05-25T11:06:07.790Z,100678.05
2019-05-25T11:07:12.988Z,100677.95
2019-05-25T11:08:18.814Z,100685.67
2019-05-25T11:09:23.972Z,100670.73
2019-05-25T11:10:29.825Z,100678.89
2019-05-25T11:11:35.340Z,100677.04
2019-05-25T11:12:41.054Z,100679.70
2019-05-25T11:13:48.180Z,100685.14
2019-05-25T11:14:54.132Z,100686.85
2019-05-25T11:15:59.376Z,100678.50
2019-05-25T11:17:05.730Z,100680.87
2019-05-25T11:18:11.029Z,100685.52
2019-05-25T11:19:17.318Z,100679.79
2019-05-25T11:20:23.188Z,100688.34
2019-05-25T11:21:29.307Z,100690.50
2019-05-25T11:22:34.518Z,100687.55
2019-05-25T11:23:40.477Z,100684.94
2019-05-25T11:24:45.604Z,100682.28
2019-05-25T11:25:52.534Z,100690.96
2019-05-25T11:26:59.736Z,100691.72
2019-05-25T11:28:08.333Z,100681.41
2019-05-25T11:29:13.654Z,100683.02
2019-05-25T11:30:21.290Z,100683.41
2019-05-25T11:31:26.752Z,100674.97
2019-05-25T11:32:32.638Z,100677.87
2019-05-25T11:33:38.385Z,100677.70
2019-05-25T11:34:44.148Z,100681.12
2019-05-25T11:35:49.525Z,100683.44
2019-05-25T11:36:55.452Z,100678.44
2019-05-25T11:38:01.062Z,100679.06
2019-05-25T11:39:08.235Z,100672.70
2019-05-25T11:40:13.537Z,100676.90
2019-05-25T11:41:19.433Z,100681.33
2019-05-25T11:42:24.679Z,100679.73
2019-05-25T11:43:30.995Z,100678.96
2019-05-25T11:44:36.379Z,100674.13
2019-05-25T11:45:45.242Z,100675.80
2019-05-25T11:46:49.354Z,100675.20
2019-05-25T11:47:54.559Z,100669.26
2019-05-25T11:48:59.015Z,100675.94
2019-05-25T11:50:06.031Z,100673.67
2019-05-25T11:51:10.452Z,100673.22
2019-05-25T11:52:15.446Z,100679.82
2019-05-25T11:53:19.935Z,100676.23
2019-05-25T11:54:24.952Z,100677.73
2019-05-25T11:55:29.366Z,100675.80
2019-05-25T11:56:34.376Z,100677.70
2019-05-25T11:57:38.791Z,100677.87
2019-05-25T11:58:47.392Z,100675.38
2019-05-25T11:59:50.033Z,100677.21
2019-05-25T12:00:55.413Z,100680.69
2019-05-25T12:02:00.831Z,100684.41
2019-05-25T12:03:05.941Z,100683.77
2019-05-25T12:04:10.469Z,100678.41
2019-05-25T12:05:16.008Z,100685.59
2019-05-25T12:06:20.490Z,100681.53
2019-05-25T12:07:25.491Z,100684.73
2019-05-25T12:08:30.287Z,100682.14
2019-05-25T12:09:35.313Z,100685.87
2019-05-25T12:10:39.800Z,100680.95
2019-05-25T12:11:45.195Z,100684.27
2019-05-25T12:12:49.685Z,100683.69
2019-05-25T12:13:54.704Z,100683.32
2019-05-25T12:14:59.112Z,100685.31
2019-05-25T12:16:04.641Z,100680.65
2019-05-25T12:17:09.214Z,100687.39
2019-05-25T12:18:14.204Z,100686.47
2019-05-25T12:19:18.637Z,100682.55
2019-05-25T12:20:23.724Z,100686.58
2019-05-25T12:21:29.116Z,100684.55
2019-05-25T12:22:34.185Z,100682.35
2019-05-25T12:23:38.669Z,100685.16
2019-05-25T12:24:43.697Z,100680.42